This is the latest recevied weather packets stored in our database for station/object KF6RAL-6. If no packets are shown the sender has not sent any weather packets the latest 10 day(s).
| Time | Temp. | Humidity | Pressure | Rain* | Wind** | Luminosity | Snow |
|---|---|---|---|---|---|---|---|
| 1777470037 | 6.67° C | 67% | 1018.2 hPa | 0 mm | - | - | - |
| 1777469616 | 6.11° C | 67% | 1018.4 hPa | 0 mm | - | - | - |
| 1777469195 | 5.56° C | 68% | 1018.4 hPa | 0 mm | - | - | - |
| 1777468774 | 5° C | 69% | 1018.8 hPa | 0 mm | - | - | - |
| 1777468353 | 4.44° C | 68% | 1018.6 hPa | 0 mm | - | - | - |
| 1777467932 | 5° C | 66% | 1018.7 hPa | 0 mm | - | - | - |
| 1777467511 | 6.11° C | 64% | 1018.4 hPa | 0 mm | - | - | - |
| 1777467091 | 7.22° C | 59% | 1018 hPa | 0 mm | - | - | - |
| 1777466669 | 6.11° C | 60% | 1018.3 hPa | 0 mm | - | - | - |
| 1777466248 | 6.11° C | 66% | 1018.4 hPa | 0 mm | - | - | - |
| 1777465827 | 6.11° C | 65% | 1018.4 hPa | 0 mm | - | - | - |
| 1777465406 | 6.11° C | 66% | 1018.3 hPa | 0 mm | - | - | - |
| 1777464985 | 6.11° C | 66% | 1018.4 hPa | 0 mm | - | - | - |
| 1777464564 | 6.11° C | 65% | 1018.4 hPa | 0 mm | - | - | - |
| 1777464144 | 6.11° C | 65% | 1018.3 hPa | 0 mm | - | - | - |
| 1777463722 | 6.67° C | 62% | 1018.1 hPa | 0 mm | - | - | - |
| 1777463301 | 6.67° C | 61% | 1018.1 hPa | 0 mm | - | - | - |
| 1777462880 | 6.11° C | 64% | 1018.4 hPa | 0 mm | - | - | - |
| 1777462459 | 6.11° C | 64% | 1018.4 hPa | 0 mm | - | - | - |
| 1777461617 | 6.67° C | 65% | 1018 hPa | 0 mm | - | - | - |
| 1777461196 | 6.11° C | 60% | 1018.4 hPa | 0 mm | - | - | - |
| 1777460775 | 6.11° C | 60% | 1018.4 hPa | 0 mm | - | - | - |
| 1777460354 | 6.67° C | 61% | 1018 hPa | 0 mm | - | - | - |
| 1777459933 | 7.22° C | 65% | 1017.9 hPa | 0 mm | - | - | - |
| 1777459512 | 7.22° C | 65% | 1018.1 hPa | 0 mm | - | - | - |
* Rain latest hour (hover to see other rain measurements)
** Current wind speed in m/s (hover to see current wind gust speed)